createdAt,value
2023-07-07T00:01:15.921Z,18.42
2023-07-07T00:03:44.033Z,18.41
2023-07-07T00:06:11.614Z,18.41
2023-07-07T00:08:39.300Z,18.36
2023-07-07T00:11:06.865Z,18.30
2023-07-07T00:13:35.761Z,18.28
2023-07-07T00:16:04.559Z,18.26
2023-07-07T00:18:32.338Z,18.26
2023-07-07T00:21:01.924Z,18.26
2023-07-07T00:23:31.173Z,18.23
2023-07-07T00:26:03.769Z,18.22
2023-07-07T00:28:31.836Z,18.23
2023-07-07T00:31:01.550Z,18.20
2023-07-07T00:33:30.004Z,18.19
2023-07-07T00:35:57.572Z,18.17
2023-07-07T00:38:25.203Z,18.10
2023-07-07T00:40:54.094Z,18.03
2023-07-07T00:43:23.121Z,17.95
2023-07-07T00:45:50.756Z,17.92
2023-07-07T00:48:23.026Z,17.91
2023-07-07T00:50:54.096Z,17.85
2023-07-07T00:53:22.674Z,17.73
2023-07-07T00:55:54.909Z,17.67
2023-07-07T00:58:24.917Z,17.66
2023-07-07T01:00:58.986Z,17.66
2023-07-07T01:03:33.609Z,17.65
2023-07-07T01:06:03.901Z,17.61
2023-07-07T01:08:31.676Z,17.56
2023-07-07T01:10:59.379Z,17.41
2023-07-07T01:13:28.222Z,17.24
2023-07-07T01:16:07.695Z,17.06
2023-07-07T01:18:42.440Z,16.88
2023-07-07T01:21:17.937Z,16.76
2023-07-07T01:24:20.326Z,16.73
2023-07-07T01:27:02.001Z,16.66
2023-07-07T01:29:56.458Z,16.57
2023-07-07T01:32:30.102Z,16.55
2023-07-07T01:34:59.676Z,16.55
2023-07-07T01:37:27.362Z,16.55
2023-07-07T01:39:56.339Z,16.51
2023-07-07T01:42:29.970Z,16.44
2023-07-07T01:45:05.817Z,16.36
2023-07-07T01:47:37.708Z,16.31
2023-07-07T01:50:09.744Z,16.29
2023-07-07T01:52:41.973Z,16.26
2023-07-07T01:55:16.993Z,16.32
2023-07-07T01:57:47.436Z,16.33
2023-07-07T02:00:17.598Z,16.32
2023-07-07T02:02:46.980Z,16.31
2023-07-07T02:05:15.377Z,16.27
2023-07-07T02:07:43.216Z,16.28
2023-07-07T02:10:11.939Z,16.28
2023-07-07T02:12:39.648Z,16.27
2023-07-07T02:15:08.586Z,16.24
2023-07-07T02:17:36.464Z,16.21
2023-07-07T02:20:06.622Z,16.17
2023-07-07T02:22:34.290Z,16.10
2023-07-07T02:25:01.946Z,16.02
2023-07-07T02:27:29.563Z,15.94
2023-07-07T02:29:57.239Z,15.84
2023-07-07T02:32:27.189Z,15.78
2023-07-07T02:34:56.387Z,15.72
2023-07-07T02:37:25.626Z,15.66
2023-07-07T02:39:53.475Z,15.63
2023-07-07T02:42:21.089Z,15.59
2023-07-07T02:44:48.746Z,15.58
2023-07-07T02:47:16.450Z,15.59
2023-07-07T02:49:44.104Z,15.61
2023-07-07T02:52:12.191Z,15.59
2023-07-07T02:54:41.197Z,15.54
2023-07-07T02:57:08.886Z,15.56
2023-07-07T02:59:36.462Z,15.64
2023-07-07T03:02:05.657Z,15.79
2023-07-07T03:04:33.297Z,15.90
2023-07-07T03:07:00.941Z,16.00
2023-07-07T03:09:28.578Z,16.11
2023-07-07T03:11:57.575Z,16.23
2023-07-07T03:14:25.191Z,16.25
2023-07-07T03:16:53.599Z,16.22
2023-07-07T03:19:21.691Z,16.20
2023-07-07T03:21:49.385Z,16.22
2023-07-07T03:24:17.485Z,16.27
2023-07-07T03:26:45.577Z,16.28
2023-07-07T03:29:14.709Z,16.21
2023-07-07T03:31:42.395Z,16.16
2023-07-07T03:34:10.131Z,16.13
2023-07-07T03:36:38.428Z,16.13
2023-07-07T03:39:06.349Z,16.08
2023-07-07T03:41:34.162Z,15.98
2023-07-07T03:44:02.127Z,15.86
2023-07-07T03:46:31.762Z,15.86
2023-07-07T03:49:00.318Z,15.92
2023-07-07T03:51:29.933Z,15.96
2023-07-07T03:53:57.670Z,15.98
2023-07-07T03:56:27.767Z,16.01
2023-07-07T03:58:55.461Z,16.02
2023-07-07T04:01:23.077Z,15.99
2023-07-07T04:03:52.269Z,16.01
2023-07-07T04:06:21.114Z,16.03
2023-07-07T04:08:49.005Z,16.08
2023-07-07T04:11:18.668Z,16.09
2023-07-07T04:13:49.741Z,16.10
2023-07-07T04:16:20.524Z,16.14
2023-07-07T04:18:48.758Z,16.18
2023-07-07T04:21:21.206Z,16.20
2023-07-07T04:23:50.344Z,16.18
2023-07-07T04:26:18.949Z,16.17
2023-07-07T04:28:46.635Z,16.19
2023-07-07T04:31:15.440Z,16.20
2023-07-07T04:33:43.715Z,16.21
2023-07-07T04:36:14.096Z,16.21
2023-07-07T04:38:43.999Z,16.21
2023-07-07T04:41:13.908Z,16.21
2023-07-07T04:43:44.175Z,16.20
2023-07-07T04:46:13.430Z,16.21
2023-07-07T04:48:42.019Z,16.27
2023-07-07T04:51:11.761Z,16.30
2023-07-07T04:53:42.104Z,16.30
2023-07-07T04:56:12.616Z,16.32
2023-07-07T04:58:41.620Z,16.29
2023-07-07T05:01:10.605Z,16.27
2023-07-07T05:03:42.931Z,16.33
2023-07-07T05:06:11.713Z,16.35
2023-07-07T05:08:41.420Z,16.37
2023-07-07T05:11:13.717Z,16.41
2023-07-07T05:13:41.555Z,16.42
2023-07-07T05:16:11.328Z,16.42
2023-07-07T05:18:39.366Z,16.41
2023-07-07T05:21:09.904Z,16.41
2023-07-07T05:23:38.462Z,16.43
2023-07-07T05:26:09.155Z,16.51
2023-07-07T05:28:38.410Z,16.61
2023-07-07T05:31:08.508Z,16.71
2023-07-07T05:33:36.891Z,16.81
2023-07-07T05:36:05.988Z,16.93
2023-07-07T05:38:34.014Z,17.05
2023-07-07T05:41:02.143Z,17.18
2023-07-07T05:43:30.106Z,17.30
2023-07-07T05:46:01.196Z,17.42
2023-07-07T05:48:29.622Z,17.53
2023-07-07T05:51:00.373Z,17.65
2023-07-07T05:53:29.240Z,17.75
2023-07-07T05:56:05.050Z,17.88
2023-07-07T05:58:33.209Z,18.01
2023-07-07T06:01:02.473Z,18.10
2023-07-07T06:03:30.347Z,18.20
2023-07-07T06:05:57.913Z,18.31
2023-07-07T06:08:25.531Z,18.41
2023-07-07T06:10:53.401Z,18.51
2023-07-07T06:13:25.196Z,18.60
2023-07-07T06:15:54.006Z,18.69
2023-07-07T06:18:23.818Z,18.80
2023-07-07T06:20:52.695Z,18.89
2023-07-07T06:23:20.668Z,18.98
2023-07-07T06:25:49.046Z,19.07
2023-07-07T06:28:17.005Z,19.13
2023-07-07T06:30:45.190Z,19.21
2023-07-07T06:33:12.778Z,19.30
2023-07-07T06:35:41.945Z,19.39
2023-07-07T06:38:09.594Z,19.47
2023-07-07T06:40:37.192Z,19.55
2023-07-07T06:43:04.683Z,19.63
2023-07-07T06:45:35.225Z,19.70
2023-07-07T06:48:03.952Z,19.79
2023-07-07T06:50:33.140Z,19.88
2023-07-07T06:53:02.047Z,19.97
2023-07-07T06:55:29.568Z,20.05
2023-07-07T06:57:57.128Z,20.14
2023-07-07T07:00:25.040Z,20.24
2023-07-07T07:02:52.672Z,20.34
2023-07-07T07:05:20.496Z,20.45
2023-07-07T07:07:49.058Z,20.55
2023-07-07T07:10:18.184Z,20.68
2023-07-07T07:12:45.737Z,20.81
2023-07-07T07:15:13.262Z,20.92
2023-07-07T07:17:40.886Z,20.99
2023-07-07T07:20:12.099Z,21.06
2023-07-07T07:22:39.660Z,21.14
2023-07-07T07:25:10.038Z,21.22
2023-07-07T07:27:41.558Z,21.31
2023-07-07T07:30:13.134Z,21.43
2023-07-07T07:32:40.787Z,21.56
2023-07-07T07:35:09.100Z,21.71
2023-07-07T07:37:37.413Z,21.81
2023-07-07T07:40:06.444Z,21.94
2023-07-07T07:42:34.297Z,22.08
2023-07-07T07:45:03.857Z,22.21
2023-07-07T07:47:35.848Z,22.31
2023-07-07T07:50:06.057Z,22.38
2023-07-07T07:52:41.635Z,22.48
2023-07-07T07:55:21.602Z,22.59
2023-07-07T07:57:57.066Z,22.67
2023-07-07T08:00:32.922Z,22.79
2023-07-07T08:03:09.949Z,22.90
2023-07-07T08:05:37.879Z,23.03
2023-07-07T08:08:07.363Z,23.17
2023-07-07T08:10:36.362Z,23.26
2023-07-07T08:13:06.273Z,23.35
2023-07-07T08:15:38.044Z,23.43
2023-07-07T08:40:22.820Z,24.13
2023-07-07T08:43:25.237Z,24.22
2023-07-07T08:46:00.874Z,24.29
2023-07-07T08:48:42.556Z,24.34
2023-07-07T08:51:18.979Z,24.42
2023-07-07T08:56:35.913Z,24.56
2023-07-07T08:59:16.408Z,24.61
2023-07-07T09:01:55.817Z,24.65
2023-07-07T09:04:33.350Z,24.73
2023-07-07T09:07:20.294Z,24.79
2023-07-07T09:10:04.133Z,24.86
2023-07-07T09:12:39.390Z,24.94
2023-07-07T09:15:15.024Z,25.00
2023-07-07T09:17:46.961Z,25.07
2023-07-07T09:20:18.094Z,25.14
2023-07-07T09:22:49.543Z,25.20
2023-07-07T09:25:21.253Z,25.27
2023-07-07T09:27:59.525Z,25.31
2023-07-07T09:30:32.291Z,25.37
2023-07-07T09:33:00.183Z,25.40
2023-07-07T09:35:32.838Z,25.41
2023-07-07T09:38:12.306Z,25.45
2023-07-07T09:40:46.024Z,25.51
2023-07-07T09:43:26.097Z,25.56
2023-07-07T09:46:09.038Z,25.65
2023-07-07T09:48:45.020Z,25.74
2023-07-07T09:51:24.130Z,25.80
2023-07-07T09:53:52.504Z,25.87
2023-07-07T09:56:24.067Z,25.88
2023-07-07T09:59:04.381Z,25.92
2023-07-07T10:01:37.652Z,25.95
2023-07-07T10:04:14.794Z,25.98
2023-07-07T10:06:49.455Z,26.04
2023-07-07T10:09:17.415Z,26.08
2023-07-07T10:14:19.510Z,26.22
2023-07-07T10:16:56.444Z,26.29
2023-07-07T10:19:25.166Z,26.41
2023-07-07T10:21:53.387Z,26.50
2023-07-07T10:24:21.875Z,26.59
2023-07-07T10:26:49.590Z,26.70
2023-07-07T10:29:22.331Z,26.80
2023-07-07T10:31:52.138Z,26.87
2023-07-07T10:34:27.425Z,26.92
2023-07-07T10:36:56.819Z,26.96
2023-07-07T10:39:25.348Z,27.03
2023-07-07T10:41:52.893Z,27.09
2023-07-07T10:44:25.207Z,27.12
2023-07-07T10:46:52.826Z,27.14
2023-07-07T10:49:25.434Z,27.21
2023-07-07T10:52:11.431Z,27.30
2023-07-07T10:54:47.803Z,27.40
2023-07-07T10:57:26.161Z,27.44
2023-07-07T11:00:04.266Z,27.51
2023-07-07T11:02:59.725Z,27.54
2023-07-07T11:05:36.958Z,27.54
2023-07-07T11:08:21.430Z,27.58
2023-07-07T11:11:07.656Z,27.63
2023-07-07T11:13:51.096Z,27.69
2023-07-07T11:16:32.972Z,27.71
2023-07-07T11:19:18.060Z,27.78
2023-07-07T11:21:57.945Z,27.85
2023-07-07T11:24:54.982Z,27.90
2023-07-07T11:27:27.004Z,27.92
2023-07-07T11:30:01.861Z,27.94
2023-07-07T11:32:39.794Z,28.00
2023-07-07T11:35:18.874Z,28.05
2023-07-07T11:38:00.986Z,28.09
2023-07-07T11:40:37.640Z,28.13
2023-07-07T11:43:21.674Z,28.14
2023-07-07T11:46:08.416Z,28.16
2023-07-07T11:48:42.026Z,28.16
2023-07-07T11:51:24.856Z,28.17
2023-07-07T11:54:08.806Z,28.19
2023-07-07T11:56:53.656Z,28.22
2023-07-07T11:59:39.154Z,28.25
2023-07-07T12:02:15.749Z,28.27
2023-07-07T12:04:46.568Z,28.29
2023-07-07T12:07:21.507Z,28.29
2023-07-07T12:09:54.601Z,28.30
2023-07-07T12:12:29.047Z,28.33
2023-07-07T12:15:04.015Z,28.33
2023-07-07T12:17:37.790Z,28.35
2023-07-07T12:20:15.680Z,28.39
2023-07-07T12:22:43.283Z,28.33
2023-07-07T12:25:22.708Z,28.34
2023-07-07T12:27:52.684Z,28.36
2023-07-07T12:30:26.265Z,28.39
2023-07-07T12:32:54.391Z,28.42
2023-07-07T12:35:29.730Z,28.46
2023-07-07T12:37:58.513Z,28.44
2023-07-07T12:40:26.785Z,28.47
2023-07-07T12:43:01.060Z,28.50
2023-07-07T12:45:32.650Z,28.50
2023-07-07T12:48:05.806Z,28.49
2023-07-07T12:50:37.806Z,28.49
2023-07-07T12:53:07.000Z,28.46
2023-07-07T12:55:39.087Z,28.45
2023-07-07T12:58:32.977Z,28.48
2023-07-07T13:01:12.100Z,28.52
2023-07-07T13:03:47.482Z,28.53
2023-07-07T13:06:34.528Z,28.45
2023-07-07T13:09:22.003Z,28.33
2023-07-07T13:11:52.232Z,28.29
2023-07-07T13:14:32.624Z,28.28
2023-07-07T13:17:02.643Z,28.24
2023-07-07T13:19:30.868Z,28.20
2023-07-07T13:22:03.678Z,28.15
2023-07-07T13:24:41.204Z,28.14
2023-07-07T13:27:14.773Z,28.16
2023-07-07T13:29:43.197Z,28.21
2023-07-07T13:32:27.326Z,28.27
2023-07-07T13:34:55.842Z,28.27
2023-07-07T13:37:26.548Z,28.31
2023-07-07T13:39:54.206Z,28.34
2023-07-07T13:42:25.385Z,28.36
2023-07-07T13:45:00.420Z,28.35
2023-07-07T13:47:32.282Z,28.38
2023-07-07T13:50:02.647Z,28.39
2023-07-07T13:52:34.379Z,28.39
2023-07-07T13:55:01.915Z,28.38
2023-07-07T13:57:32.321Z,28.37
2023-07-07T14:00:01.904Z,28.32
2023-07-07T14:02:30.319Z,28.31
2023-07-07T14:05:02.339Z,28.32
2023-07-07T14:07:29.973Z,28.32
2023-07-07T14:09:59.357Z,28.29
2023-07-07T14:12:30.036Z,28.27
2023-07-07T14:15:00.242Z,28.27
2023-07-07T14:17:34.681Z,28.25
2023-07-07T14:20:09.235Z,28.27
2023-07-07T14:22:37.617Z,28.27
2023-07-07T14:25:08.414Z,28.25
2023-07-07T14:27:36.170Z,28.25
2023-07-07T14:30:03.983Z,28.25
2023-07-07T14:32:37.584Z,28.22
2023-07-07T14:35:15.765Z,28.17
2023-07-07T14:37:50.149Z,28.16
2023-07-07T14:40:28.729Z,28.18
2023-07-07T14:42:57.023Z,28.18
2023-07-07T14:45:27.104Z,28.12
2023-07-07T14:47:55.321Z,28.10
2023-07-07T14:50:23.564Z,28.07
2023-07-07T14:52:54.546Z,28.07
2023-07-07T14:55:26.092Z,28.08
2023-07-07T14:57:58.137Z,28.07
2023-07-07T15:00:37.836Z,28.04
2023-07-07T15:03:29.681Z,28.01
2023-07-07T15:06:02.011Z,27.98
2023-07-07T15:08:31.126Z,27.96
2023-07-07T15:11:02.581Z,27.92
2023-07-07T15:13:30.973Z,27.92
2023-07-07T15:15:58.979Z,27.93
2023-07-07T15:18:26.792Z,27.98
2023-07-07T15:20:54.332Z,27.98
2023-07-07T15:23:21.863Z,27.99
2023-07-07T15:25:49.819Z,28.03
2023-07-07T15:28:22.061Z,28.06
2023-07-07T15:30:49.644Z,28.06
2023-07-07T15:33:18.256Z,28.04
2023-07-07T15:35:46.034Z,28.04
2023-07-07T15:38:47.351Z,28.06
2023-07-07T15:41:16.757Z,28.04
2023-07-07T15:43:45.933Z,28.04
2023-07-07T15:46:15.708Z,28.03
2023-07-07T15:48:43.275Z,28.02
2023-07-07T15:51:31.860Z,27.98
2023-07-07T15:54:00.157Z,27.93
2023-07-07T15:56:30.382Z,27.94
2023-07-07T15:58:59.728Z,27.99
2023-07-07T16:01:27.833Z,28.03
2023-07-07T16:03:55.665Z,28.10
2023-07-07T16:06:23.851Z,28.15
2023-07-07T16:08:51.398Z,28.19
2023-07-07T16:11:21.108Z,28.20
2023-07-07T16:13:51.162Z,28.23
2023-07-07T16:16:23.520Z,28.25
2023-07-07T16:18:51.709Z,28.25
2023-07-07T16:21:22.162Z,28.21
2023-07-07T16:23:49.986Z,28.17
2023-07-07T16:26:25.460Z,28.15
2023-07-07T16:28:53.197Z,28.15
2023-07-07T16:31:23.342Z,28.17
2023-07-07T16:33:50.993Z,28.19
2023-07-07T16:36:20.779Z,28.22
2023-07-07T16:38:49.508Z,28.24
2023-07-07T16:41:20.085Z,28.24
2023-07-07T16:43:47.669Z,28.21
2023-07-07T16:46:17.287Z,28.19
2023-07-07T16:48:49.922Z,28.17
2023-07-07T16:51:20.861Z,28.15
2023-07-07T16:53:48.806Z,28.16
2023-07-07T16:56:20.931Z,28.17
2023-07-07T16:58:48.511Z,28.17
2023-07-07T17:01:17.335Z,28.14
2023-07-07T17:03:46.561Z,28.13
2023-07-07T17:06:24.659Z,28.14
2023-07-07T17:08:52.877Z,28.14
2023-07-07T17:11:20.623Z,28.11
2023-07-07T17:13:48.425Z,28.07
2023-07-07T17:16:21.536Z,28.04
2023-07-07T17:18:52.265Z,28.02
2023-07-07T17:21:21.205Z,28.04
2023-07-07T17:23:49.687Z,28.05
2023-07-07T17:26:18.471Z,28.06
2023-07-07T17:28:46.249Z,28.03
2023-07-07T17:31:15.814Z,28.00
2023-07-07T17:33:43.720Z,27.96
2023-07-07T17:36:19.256Z,27.95
2023-07-07T17:38:46.852Z,27.96
2023-07-07T17:41:15.431Z,27.94
2023-07-07T17:43:43.340Z,27.92
2023-07-07T17:46:23.863Z,27.93
2023-07-07T17:48:51.736Z,27.93
2023-07-07T17:51:20.617Z,27.94
2023-07-07T17:53:48.349Z,27.92
2023-07-07T17:56:18.310Z,27.91
2023-07-07T17:58:46.247Z,27.91
2023-07-07T18:01:14.008Z,27.89
2023-07-07T18:03:41.800Z,27.86
2023-07-07T18:06:18.123Z,27.83
2023-07-07T18:08:47.864Z,27.81
2023-07-07T18:11:18.583Z,27.78
2023-07-07T18:13:46.771Z,27.76
2023-07-07T18:16:18.493Z,27.73
2023-07-07T18:19:07.176Z,27.69
2023-07-07T18:21:49.166Z,27.64
2023-07-07T18:24:23.110Z,27.59
2023-07-07T18:26:50.697Z,27.54
2023-07-07T18:29:21.536Z,27.50
2023-07-07T18:31:49.167Z,27.44
2023-07-07T18:34:17.101Z,27.40
2023-07-07T18:36:47.717Z,27.35
2023-07-07T18:39:21.253Z,27.29
2023-07-07T18:41:50.301Z,27.25
2023-07-07T18:44:18.668Z,27.21
2023-07-07T18:46:46.256Z,27.17
2023-07-07T18:49:14.766Z,27.10
2023-07-07T18:51:43.624Z,27.05
2023-07-07T18:54:11.775Z,26.99
2023-07-07T18:56:40.160Z,26.92
2023-07-07T18:59:13.008Z,26.85
2023-07-07T19:01:41.044Z,26.79
2023-07-07T19:04:08.967Z,26.70
2023-07-07T19:06:39.218Z,26.64
2023-07-07T19:09:16.171Z,26.54
2023-07-07T19:11:43.820Z,26.48
2023-07-07T19:14:12.807Z,26.44
2023-07-07T19:16:40.818Z,26.38
2023-07-07T19:19:13.719Z,26.30
2023-07-07T19:21:41.280Z,26.23
2023-07-07T19:24:11.626Z,26.15
2023-07-07T19:26:44.583Z,26.09
2023-07-07T19:29:15.013Z,26.05
2023-07-07T19:31:43.441Z,26.00
2023-07-07T19:34:12.558Z,25.93
2023-07-07T19:36:41.737Z,25.86
2023-07-07T19:39:15.989Z,25.79
2023-07-07T19:41:43.617Z,25.73
2023-07-07T19:44:11.918Z,25.67
2023-07-07T19:46:42.562Z,25.60
2023-07-07T19:49:17.570Z,25.55
2023-07-07T19:51:45.499Z,25.49
2023-07-07T19:54:13.166Z,25.44
2023-07-07T19:56:41.437Z,25.40
2023-07-07T19:59:13.817Z,25.36
2023-07-07T20:01:42.972Z,25.26
2023-07-07T20:04:10.530Z,25.18
2023-07-07T20:06:41.641Z,25.13
2023-07-07T20:09:15.876Z,25.10
2023-07-07T20:11:43.387Z,25.05
2023-07-07T20:14:10.949Z,24.98
2023-07-07T20:16:44.978Z,24.94
2023-07-07T20:19:14.368Z,24.88
2023-07-07T20:21:42.229Z,24.82
2023-07-07T20:24:15.741Z,24.77
2023-07-07T20:26:46.855Z,24.73
2023-07-07T20:29:15.779Z,24.73
2023-07-07T20:31:45.056Z,24.71
2023-07-07T20:34:13.672Z,24.66
2023-07-07T20:36:43.446Z,24.58
2023-07-07T20:39:14.045Z,24.51
2023-07-07T20:41:41.937Z,24.47
2023-07-07T20:44:09.531Z,24.42
2023-07-07T20:46:39.557Z,24.38
2023-07-07T20:49:15.177Z,24.34
2023-07-07T20:51:42.827Z,24.27
2023-07-07T20:54:10.390Z,24.18
2023-07-07T20:56:37.952Z,24.14
2023-07-07T20:59:17.750Z,24.10
2023-07-07T21:01:53.337Z,24.06
2023-07-07T21:04:22.325Z,24.02
2023-07-07T21:06:49.862Z,24.01
2023-07-07T21:09:18.024Z,23.97
2023-07-07T21:11:46.112Z,23.94
2023-07-07T21:14:13.940Z,23.92
2023-07-07T21:16:45.672Z,23.91
2023-07-07T21:19:13.657Z,23.84
2023-07-07T21:21:43.247Z,23.79
2023-07-07T21:24:10.823Z,23.77
2023-07-07T21:26:38.634Z,23.73
2023-07-07T21:29:11.121Z,23.65
2023-07-07T21:31:40.201Z,23.60
2023-07-07T21:34:08.245Z,23.56
2023-07-07T21:36:38.254Z,23.52
2023-07-07T21:39:20.362Z,23.49
2023-07-07T21:41:53.563Z,23.40
2023-07-07T21:44:34.156Z,23.33
2023-07-07T21:47:01.959Z,23.22
2023-07-07T21:49:29.501Z,23.11
2023-07-07T21:51:57.092Z,23.06
2023-07-07T21:54:26.180Z,23.02
2023-07-07T21:56:53.741Z,23.01
2023-07-07T21:59:23.107Z,22.99
2023-07-07T22:01:52.694Z,22.97
2023-07-07T22:04:22.758Z,22.95
2023-07-07T22:06:50.561Z,22.93
2023-07-07T22:09:19.369Z,22.86
2023-07-07T22:11:48.296Z,22.78
2023-07-07T22:14:15.834Z,22.76
2023-07-07T22:16:43.352Z,22.75
2023-07-07T22:19:13.430Z,22.73
2023-07-07T22:21:41.097Z,22.69
2023-07-07T22:24:08.842Z,22.67
2023-07-07T22:26:36.839Z,22.63
2023-07-07T22:29:05.874Z,22.59
2023-07-07T22:31:33.397Z,22.54
2023-07-07T22:34:01.042Z,22.53
2023-07-07T22:36:28.662Z,22.49
2023-07-07T22:38:56.366Z,22.46
2023-07-07T22:41:26.044Z,22.41
2023-07-07T22:43:53.989Z,22.36
2023-07-07T22:46:26.389Z,22.32
2023-07-07T22:48:54.027Z,22.28
2023-07-07T22:51:22.243Z,22.25
2023-07-07T22:53:50.000Z,22.21
2023-07-07T22:56:24.680Z,22.14
2023-07-07T22:58:52.797Z,22.08
2023-07-07T23:01:20.749Z,21.99
2023-07-07T23:03:52.586Z,21.94
2023-07-07T23:06:20.307Z,21.91
2023-07-07T23:08:48.331Z,21.89
2023-07-07T23:11:17.455Z,21.88
2023-07-07T23:13:45.138Z,21.85
2023-07-07T23:16:13.822Z,21.79
2023-07-07T23:18:42.450Z,21.75
2023-07-07T23:21:13.108Z,21.74
2023-07-07T23:26:15.640Z,21.72
2023-07-07T23:28:43.155Z,21.73
2023-07-07T23:31:11.556Z,21.75
2023-07-07T23:33:39.148Z,21.77
2023-07-07T23:36:16.740Z,21.81
2023-07-07T23:38:45.405Z,21.80
2023-07-07T23:41:13.987Z,21.79
2023-07-07T23:51:11.071Z,21.75
2023-07-07T23:53:40.251Z,21.74
2023-07-07T23:56:13.559Z,21.71
2023-07-07T23:58:41.150Z,21.72
